Hale, United Kingdom
Current Conditions -  °F | °C
As of 12:20 PM on Friday 28 Nov 2014 (Local Time) from EGLF Reporting Station
Haze Haze  
Wind Chill: 50°   Ceiling: 700
Heat Index: 50°   Visibility: 2.5mi
Dew Point: 48°   Wind: 13mph
Humidity: 94%   Direction: 70°ENE
Pressure: 29.59"   Gusts: NA
Location:  51.22°N, 0.78°W
Report Text: EGLF 281220Z 07011KT 4000 HZ BKN007 10/09 Q1002
Loading
Personal Weather Stations






























Interactive Weather Map New forecast layout! Learn more

10-Day Weather Forecast

Advertisements
Track Severe Weather on mobile